Redmond, Washington
Current Conditions -  °F | °C
As of 10:53 PM on Wednesday 26 Nov 2014 (Local Time) from KBFI Reporting Station
Overcast Overcast  
Wind Chill: 59°   Ceiling: 9000
Heat Index: 59°   Visibility: 10mi
Dew Point: 50°   Wind: 7mph
Humidity: 72%   Direction: 170°S
Pressure: 29.88"   Gusts: NA
Location:  47.68°N, 122.13°W
Report Text: KBFI 270653Z 17006KT 10SM FEW070 OVC090 15/10 A2988 RMK AO2 SLP117 T01500100
Loading
Personal Weather Stations






























Interactive Weather Map New forecast layout! Learn more

10-Day Weather Forecast

Advertisements
Track Severe Weather on mobile